Time;durP1;ratioP1;P1;durP2;ratioP2;P2;SDS_P1;SDS_P2;PMS_P1;PMS_P2;Temp;Humidity;BMP_temperature;BMP_pressure;BME280_temperature;BME280_humidity;BME280_pressure;Samples;Min_cycle;Max_cycle;Signal;HPM_P1;HPM_P2
2022/07/10 00:02:15;;;;;;;;;;;;;;;22.84;28.80;97271.84;4994860;28;950;-82
2022/07/10 00:04:41;;;;;;;;;;;;;;;22.83;29.11;97275.94;4995507;28;981;-81
2022/07/10 00:07:06;;;;;;;;;;;;;;;22.80;28.88;97271.22;4994913;28;922;-81
2022/07/10 00:09:32;;;;;;;;;;;;;;;22.76;29.10;97270.59;4994714;28;1965;-82
2022/07/10 00:11:57;;;;;;;;;;;;;;;22.70;29.23;97272.47;4995009;28;1000;-83
2022/07/10 00:14:23;;;;;;;;;;;;;;;22.77;28.77;97274.19;5006708;28;1691;-81
2022/07/10 00:16:48;;;;;;;;;;;;;;;22.81;29.06;97278.47;5006171;28;1023;-82
2022/07/10 00:19:14;;;;;;;;;;;;;;;22.82;28.88;97263.00;5016875;28;759;-82
2022/07/10 00:21:39;;;;;;;;;;;;;;;22.71;28.88;97274.03;5016836;28;823;-82
2022/07/10 00:24:05;;;;;;;;;;;;;;;22.80;28.87;97279.72;5016542;28;880;-82
2022/07/10 00:26:30;;;;;;;;;;;;;;;22.90;28.78;97274.06;5032616;28;863;-80
2022/07/10 00:28:56;;;;;;;;;;;;;;;22.90;28.76;97279.75;5034802;28;1633;-83
2022/07/10 00:31:21;;;;;;;;;;;;;;;22.85;28.80;97269.81;4979974;28;1915;-82
2022/07/10 00:33:47;;;;;;;;;;;;;;;22.73;29.20;97274.34;5014120;28;916;-82
2022/07/10 00:36:13;;;;;;;;;;;;;;;22.75;29.00;97273.91;4997953;28;796;-83
2022/07/10 00:38:39;;;;;;;;;;;;;;;22.70;29.06;97272.47;4998050;28;935;-82
2022/07/10 00:41:04;;;;;;;;;;;;;;;22.62;29.08;97265.50;4997816;28;894;-82
2022/07/10 00:43:30;;;;;;;;;;;;;;;22.70;29.13;97266.78;5012398;28;1674;-82
2022/07/10 00:45:55;;;;;;;;;;;;;;;22.91;28.96;97264.31;4994242;28;1726;-82
2022/07/10 00:48:21;;;;;;;;;;;;;;;22.55;29.23;97260.16;4994633;28;1192;-82
2022/07/10 00:50:46;;;;;;;;;;;;;;;22.72;28.91;97263.47;4994650;28;1972;-81
2022/07/10 00:53:12;;;;;;;;;;;;;;;22.80;28.81;97259.88;4994674;28;889;-81
2022/07/10 00:55:37;;;;;;;;;;;;;;;22.90;28.90;97254.22;4994528;28;991;-83
2022/07/10 00:58:04;;;;;;;;;;;;;;;22.91;28.62;97264.31;4994211;28;982;-79
2022/07/10 01:00:30;;;;;;;;;;;;;;;22.74;28.88;97256.09;4993286;28;2031;-82
2022/07/10 01:02:55;;;;;;;;;;;;;;;22.76;28.79;97253.56;5027184;28;890;-82
2022/07/10 01:05:21;;;;;;;;;;;;;;;22.57;29.30;97255.56;5054142;28;821;-82
2022/07/10 01:07:47;;;;;;;;;;;;;;;22.38;29.62;97256.00;5055030;28;798;-81
2022/07/10 01:10:12;;;;;;;;;;;;;;;22.71;29.13;97257.03;5040075;28;1983;-82
2022/07/10 01:12:38;;;;;;;;;;;;;;;22.76;28.95;97247.88;5072764;28;839;-82
2022/07/10 01:15:03;;;;;;;;;;;;;;;22.74;28.90;97241.91;5038116;28;1656;-82
2022/07/10 01:17:29;;;;;;;;;;;;;;;22.92;28.88;97240.38;5071996;28;899;-82
2022/07/10 01:19:54;;;;;;;;;;;;;;;22.88;28.92;97249.03;5070722;28;920;-81
2022/07/10 01:22:20;;;;;;;;;;;;;;;22.85;28.88;97249.94;5039641;28;909;-82
2022/07/10 01:24:45;;;;;;;;;;;;;;;22.84;28.75;97243.47;5039403;28;830;-82
2022/07/10 01:27:11;;;;;;;;;;;;;;;22.64;29.45;97243.16;5039531;28;1007;-82
2022/07/10 01:29:36;;;;;;;;;;;;;;;22.55;29.62;97231.78;5036523;28;1898;-82
2022/07/10 01:32:02;;;;;;;;;;;;;;;22.72;29.05;97238.75;5070787;28;1654;-81
2022/07/10 01:34:28;;;;;;;;;;;;;;;22.80;29.06;97231.50;5060465;28;936;-82
2022/07/10 01:36:53;;;;;;;;;;;;;;;22.71;29.13;97220.16;5077365;28;899;-82
2022/07/10 01:39:19;;;;;;;;;;;;;;;22.69;29.14;97219.84;5076938;28;1043;-82
2022/07/10 01:41:44;;;;;;;;;;;;;;;22.71;29.10;97219.38;5077524;28;962;-81
2022/07/10 01:44:10;;;;;;;;;;;;;;;22.74;29.03;97222.06;5076287;28;1707;-82
2022/07/10 01:46:35;;;;;;;;;;;;;;;22.76;29.23;97213.84;5037109;28;838;-83
2022/07/10 01:49:01;;;;;;;;;;;;;;;22.69;29.26;97214.19;5036674;28;1232;-83
2022/07/10 01:51:26;;;;;;;;;;;;;;;22.65;29.41;97207.88;5037128;28;1914;-82
2022/07/10 01:53:51;;;;;;;;;;;;;;;22.57;29.39;97206.59;5036865;28;998;-82
2022/07/10 01:56:17;;;;;;;;;;;;;;;22.83;29.20;97202.19;5037017;28;899;-83
2022/07/10 01:58:43;;;;;;;;;;;;;;;22.81;28.82;97204.72;5036491;28;930;-81
2022/07/10 02:01:08;;;;;;;;;;;;;;;22.79;29.28;97218.56;5055316;28;1701;-83
2022/07/10 02:06:18;;;;;;;;;;;;;;;21.62;29.68;97073.38;5020666;28;929;-82
2022/07/10 02:08:43;;;;;;;;;;;;;;;22.68;29.31;97206.13;5019687;28;941;-83
2022/07/10 02:11:09;;;;;;;;;;;;;;;22.77;28.94;97209.75;5019016;28;1926;-82
2022/07/10 02:13:34;;;;;;;;;;;;;;;22.62;29.35;97214.47;5050598;28;1255;-81
2022/07/10 02:15:59;;;;;;;;;;;;;;;22.69;29.00;97208.50;5037587;28;1261;-83
2022/07/10 02:18:25;;;;;;;;;;;;;;;22.81;28.92;97218.91;5039192;28;950;-82
2022/07/10 02:20:51;;;;;;;;;;;;;;;22.60;29.17;97211.31;5038557;28;910;-83
2022/07/10 02:23:16;;;;;;;;;;;;;;;22.83;28.86;97218.41;5072918;28;1502;-82
2022/07/10 02:25:42;;;;;;;;;;;;;;;22.83;28.80;97215.59;5056125;28;925;-82
2022/07/10 02:28:10;;;;;;;;;;;;;;;22.60;28.83;97217.00;5056573;28;986;-81
2022/07/10 02:30:35;;;;;;;;;;;;;;;22.67;28.87;97228.03;5052730;28;1988;-82
2022/07/10 02:33:01;;;;;;;;;;;;;;;22.69;28.81;97231.19;5056067;28;805;-82
2022/07/10 02:35:26;;;;;;;;;;;;;;;22.48;29.05;97224.38;5056231;28;991;-82
2022/07/10 02:37:52;;;;;;;;;;;;;;;22.66;28.91;97232.13;5053284;28;1729;-82
2022/07/10 02:40:17;;;;;;;;;;;;;;;22.63;28.75;97238.72;5054913;28;2038;-82
2022/07/10 02:42:42;;;;;;;;;;;;;;;22.52;29.16;97244.06;5055770;28;858;-81
2022/07/10 02:45:08;;;;;;;;;;;;;;;22.64;28.40;97251.66;5056114;28;869;-81
2022/07/10 02:47:33;;;;;;;;;;;;;;;22.68;28.45;97257.94;5053643;28;2238;-82
2022/07/10 02:49:59;;;;;;;;;;;;;;;22.56;28.73;97256.06;5055784;28;1914;-81
2022/07/10 02:52:24;;;;;;;;;;;;;;;22.57;28.26;97257.63;5055479;28;897;-82
2022/07/10 02:54:50;;;;;;;;;;;;;;;22.64;28.17;97265.84;5052590;28;956;-82
2022/07/10 02:57:16;;;;;;;;;;;;;;;22.69;28.25;97267.25;5035232;28;1861;-83
2022/07/10 02:59:41;;;;;;;;;;;;;;;22.85;28.07;97273.44;5074849;28;932;-81
2022/07/10 03:02:07;;;;;;;;;;;;;;;22.65;28.23;97275.13;5074903;28;915;-82
2022/07/10 03:04:32;;;;;;;;;;;;;;;22.68;27.98;97279.84;5075075;28;914;-82
2022/07/10 03:06:58;;;;;;;;;;;;;;;22.62;27.82;97274.00;5074974;28;956;-82
2022/07/10 03:09:25;;;;;;;;;;;;;;;22.73;27.80;97282.84;5057739;28;867;-82
2022/07/10 03:11:50;;;;;;;;;;;;;;;22.50;28.05;97294.78;5058601;28;1909;-81
2022/07/10 03:14:17;;;;;;;;;;;;;;;22.45;28.00;97284.06;5055480;28;790;-81
2022/07/10 03:16:42;;;;;;;;;;;;;;;22.50;28.00;97292.75;5054890;28;791;-82
2022/07/10 03:19:08;;;;;;;;;;;;;;;22.50;28.10;97291.94;5054819;28;938;-82
2022/07/10 03:21:33;;;;;;;;;;;;;;;22.66;27.60;97294.50;5054773;28;866;-82
2022/07/10 03:23:58;;;;;;;;;;;;;;;22.65;27.75;97292.16;5054224;28;1741;-80
2022/07/10 03:26:24;;;;;;;;;;;;;;;22.35;28.05;97286.88;5068714;28;1470;-83
2022/07/10 03:28:49;;;;;;;;;;;;;;;22.51;28.00;97293.53;5053279;28;1779;-81
2022/07/10 03:31:15;;;;;;;;;;;;;;;22.65;27.89;97281.59;5039448;28;1914;-81
2022/07/10 03:33:40;;;;;;;;;;;;;;;22.72;27.66;97281.28;5051572;28;771;-82
2022/07/10 03:36:06;;;;;;;;;;;;;;;22.60;28.03;97285.03;5034471;28;952;-83
2022/07/10 03:38:31;;;;;;;;;;;;;;;22.61;27.96;97275.28;5034432;28;905;-82
2022/07/10 03:40:57;;;;;;;;;;;;;;;22.61;27.89;97281.72;5025728;28;1297;-82
2022/07/10 03:43:22;;;;;;;;;;;;;;;22.45;28.12;97272.72;5015127;28;828;-80
2022/07/10 03:45:47;;;;;;;;;;;;;;;22.63;27.97;97281.25;5015022;28;933;-82
2022/07/10 03:48:13;;;;;;;;;;;;;;;22.59;28.10;97272.13;5014528;28;1182;-82
2022/07/10 03:50:38;;;;;;;;;;;;;;;22.61;27.97;97278.13;5014818;28;1914;-82
2022/07/10 03:53:04;;;;;;;;;;;;;;;22.66;27.68;97277.50;5014762;28;930;-82
2022/07/10 03:55:29;;;;;;;;;;;;;;;22.69;27.77;97287.91;5014934;28;946;-82
2022/07/10 03:57:59;;;;;;;;;;;;;;;22.61;27.62;97286.63;5014674;28;830;-83
2022/07/10 04:00:25;;;;;;;;;;;;;;;22.50;27.98;97289.91;5041962;28;910;-82
2022/07/10 04:02:54;;;;;;;;;;;;;;;22.71;27.61;97285.38;5016909;28;896;-82
2022/07/10 04:05:20;;;;;;;;;;;;;;;22.70;27.59;97283.03;5017161;28;728;-82
2022/07/10 04:07:46;;;;;;;;;;;;;;;22.71;27.53;97288.22;5016999;28;992;-82
2022/07/10 04:10:11;;;;;;;;;;;;;;;22.52;27.84;97284.53;5016885;28;1913;-82
2022/07/10 04:12:36;;;;;;;;;;;;;;;22.62;27.66;97288.97;5015668;28;1019;-82
2022/07/10 04:15:02;;;;;;;;;;;;;;;22.60;27.71;97287.88;5016671;28;708;-81
2022/07/10 04:17:28;;;;;;;;;;;;;;;22.60;27.91;97276.53;5016389;28;816;-81
2022/07/10 04:19:53;;;;;;;;;;;;;;;22.53;27.73;97285.31;5015582;28;1042;-83
2022/07/10 04:22:19;;;;;;;;;;;;;;;22.55;27.83;97289.28;5016205;28;830;-82
2022/07/10 04:24:44;;;;;;;;;;;;;;;22.58;27.84;97284.72;5016710;28;925;-82
2022/07/10 04:27:10;;;;;;;;;;;;;;;22.61;27.76;97280.94;5015796;28;855;-83
2022/07/10 04:29:35;;;;;;;;;;;;;;;22.66;27.49;97294.50;5015317;28;907;-82
2022/07/10 04:32:01;;;;;;;;;;;;;;;22.56;27.52;97295.75;5016923;28;1968;-83
2022/07/10 04:34:26;;;;;;;;;;;;;;;22.44;28.07;97299.50;5016699;28;766;-83
2022/07/10 04:36:52;;;;;;;;;;;;;;;22.51;27.93;97293.53;5016644;28;758;-83
2022/07/10 04:39:18;;;;;;;;;;;;;;;22.56;27.80;97281.56;5016653;28;937;-82
2022/07/10 04:41:43;;;;;;;;;;;;;;;22.73;27.69;97293.41;5017812;28;913;-84
2022/07/10 04:44:09;;;;;;;;;;;;;;;22.63;27.84;97289.75;5020302;28;771;-83
2022/07/10 04:46:34;;;;;;;;;;;;;;;22.40;28.21;97290.34;5020875;28;913;-83
2022/07/10 04:48:59;;;;;;;;;;;;;;;22.40;28.31;97287.50;5019939;28;1145;-83
2022/07/10 04:51:25;;;;;;;;;;;;;;;22.51;28.00;97302.03;5019639;28;1906;-84
2022/07/10 04:53:50;;;;;;;;;;;;;;;22.56;27.85;97302.19;5019621;28;867;-83
2022/07/10 04:56:16;;;;;;;;;;;;;;;22.52;27.99;97289.44;5020494;28;882;-84
2022/07/10 04:58:41;;;;;;;;;;;;;;;22.55;28.17;97297.00;5020460;28;804;-81
2022/07/10 05:01:06;;;;;;;;;;;;;;;22.46;28.25;97291.31;5020043;28;768;-81
2022/07/10 05:03:32;;;;;;;;;;;;;;;22.63;27.77;97295.44;5020557;28;763;-80
2022/07/10 05:05:57;;;;;;;;;;;;;;;22.39;28.07;97298.06;5020168;28;834;-81
2022/07/10 05:08:23;;;;;;;;;;;;;;;22.57;28.22;97292.44;5020654;28;919;-80
2022/07/10 05:10:48;;;;;;;;;;;;;;;22.38;28.13;97301.34;5020335;28;1973;-81
2022/07/10 05:13:14;;;;;;;;;;;;;;;22.44;28.28;97299.50;5020260;28;827;-81
2022/07/10 05:15:39;;;;;;;;;;;;;;;22.58;28.02;97299.66;5020395;28;869;-81
2022/07/10 05:18:04;;;;;;;;;;;;;;;22.32;28.50;97299.13;5020718;28;824;-81
2022/07/10 05:20:30;;;;;;;;;;;;;;;22.64;27.69;97305.53;5019776;28;754;-81
2022/07/10 05:22:56;;;;;;;;;;;;;;;22.56;28.06;97313.53;5020196;28;933;-81
2022/07/10 05:25:21;;;;;;;;;;;;;;;22.52;28.04;97317.78;5019771;28;1002;-81
2022/07/10 05:27:47;;;;;;;;;;;;;;;22.53;28.16;97319.34;5018692;28;933;-80
2022/07/10 05:30:12;;;;;;;;;;;;;;;22.64;27.99;97314.06;5019596;28;1950;-81
2022/07/10 05:32:44;;;;;;;;;;;;;;;22.61;27.93;97320.66;5018582;28;875;-81
2022/07/10 05:35:10;;;;;;;;;;;;;;;22.54;28.09;97326.63;5019793;28;784;-81
2022/07/10 05:37:35;;;;;;;;;;;;;;;22.48;28.23;97334.13;5019538;28;864;-81
2022/07/10 05:40:01;;;;;;;;;;;;;;;22.53;28.21;97339.19;5019558;28;860;-81
2022/07/10 05:42:26;;;;;;;;;;;;;;;22.65;28.15;97332.63;5019515;28;831;-81
2022/07/10 05:44:51;;;;;;;;;;;;;;;22.57;28.01;97325.66;5018453;28;1098;-79
2022/07/10 05:47:17;;;;;;;;;;;;;;;22.52;27.99;97334.78;5056351;28;1072;-80
2022/07/10 05:49:42;;;;;;;;;;;;;;;22.65;28.10;97332.63;5056306;28;977;-80
2022/07/10 05:52:08;;;;;;;;;;;;;;;22.57;28.28;97334.97;5056467;28;1968;-81
2022/07/10 05:54:33;;;;;;;;;;;;;;;22.43;28.18;97344.03;5056530;28;949;-80
2022/07/10 05:56:59;;;;;;;;;;;;;;;22.45;28.35;97340.75;5056516;28;1004;-80
2022/07/10 05:59:24;;;;;;;;;;;;;;;22.57;28.09;97343.47;5056474;28;906;-81
2022/07/10 06:01:49;;;;;;;;;;;;;;;22.50;28.17;97331.63;5056629;28;891;-80
2022/07/10 06:04:15;;;;;;;;;;;;;;;22.50;28.31;97329.59;5056699;28;962;-81
2022/07/10 06:06:40;;;;;;;;;;;;;;;22.47;28.20;97333.34;5056331;28;937;-80
2022/07/10 06:09:06;;;;;;;;;;;;;;;22.50;28.53;97326.75;5056389;28;948;-81
2022/07/10 06:11:31;;;;;;;;;;;;;;;22.45;28.50;97323.75;5056303;28;1906;-79
2022/07/10 06:13:57;;;;;;;;;;;;;;;22.67;28.00;97324.44;5056133;28;873;-80
2022/07/10 06:16:22;;;;;;;;;;;;;;;22.55;28.33;97316.84;5056295;28;926;-80
2022/07/10 06:18:48;;;;;;;;;;;;;;;22.45;28.57;97318.09;5039492;28;996;-80
2022/07/10 06:21:13;;;;;;;;;;;;;;;22.52;28.37;97317.78;5019205;28;800;-80
2022/07/10 06:23:39;;;;;;;;;;;;;;;22.55;28.33;97311.19;5018880;28;912;-81
2022/07/10 06:26:04;;;;;;;;;;;;;;;22.66;28.42;97316.41;5017743;28;856;-81
2022/07/10 06:28:29;;;;;;;;;;;;;;;22.60;28.35;97319.06;5017182;28;920;-80
2022/07/10 06:30:55;;;;;;;;;;;;;;;22.38;28.98;97319.13;5018434;28;1975;-80
2022/07/10 06:33:21;;;;;;;;;;;;;;;22.43;28.58;97320.56;5018022;28;911;-82
2022/07/10 06:35:47;;;;;;;;;;;;;;;22.53;28.52;97320.13;5017923;28;922;-82
2022/07/10 06:38:12;;;;;;;;;;;;;;;22.58;28.30;97321.56;5017063;28;1307;-81
2022/07/10 06:40:38;;;;;;;;;;;;;;;22.69;28.48;97326.78;5018389;28;848;-82
2022/07/10 06:43:03;;;;;;;;;;;;;;;22.50;28.59;97325.97;5018509;28;912;-81
2022/07/10 06:45:30;;;;;;;;;;;;;;;22.49;28.71;97324.41;5016985;28;1305;-82
2022/07/10 06:47:55;;;;;;;;;;;;;;;22.41;28.98;97323.09;5016728;28;1167;-82
2022/07/10 06:50:21;;;;;;;;;;;;;;;22.53;28.79;97319.34;5018422;28;1910;-82
2022/07/10 06:52:46;;;;;;;;;;;;;;;22.42;28.77;97327.50;5017095;28;865;-82
2022/07/10 06:55:12;;;;;;;;;;;;;;;22.60;28.60;97325.53;5018173;28;759;-81
2022/07/10 06:57:37;;;;;;;;;;;;;;;22.50;28.82;97320.31;5017054;28;703;-82
2022/07/10 07:00:03;;;;;;;;;;;;;;;22.64;28.34;97325.38;5016782;28;835;-81
2022/07/10 07:02:28;;;;;;;;;;;;;;;22.52;28.60;97323.44;5018077;28;799;-82
2022/07/10 07:04:54;;;;;;;;;;;;;;;22.63;28.56;97323.78;5017180;28;958;-82
2022/07/10 07:07:19;;;;;;;;;;;;;;;22.48;29.02;97328.47;5018427;28;914;-81
2022/07/10 07:09:49;;;;;;;;;;;;;;;22.26;29.08;97326.50;5018255;28;886;-82
2022/07/10 07:12:15;;;;;;;;;;;;;;;22.55;28.75;97325.34;5018049;28;885;-81
2022/07/10 07:14:40;;;;;;;;;;;;;;;22.59;28.61;97318.28;5017890;28;916;-82
2022/07/10 07:17:08;;;;;;;;;;;;;;;22.57;28.57;97320.78;5018111;28;785;-81
2022/07/10 07:25:03;;;;;;;;;;;;;;;22.43;29.13;97318.53;5017404;28;922;-82
2022/07/10 07:27:28;;;;;;;;;;;;;;;22.49;29.09;97328.03;5031831;28;1057;-82
2022/07/10 07:29:54;;;;;;;;;;;;;;;22.56;28.78;97324.09;5017523;28;1985;-82
2022/07/10 07:32:19;;;;;;;;;;;;;;;22.61;28.89;97326.31;5016544;28;990;-82
2022/07/10 07:34:45;;;;;;;;;;;;;;;22.46;29.13;97325.31;5017371;28;810;-81
2022/07/10 07:37:10;;;;;;;;;;;;;;;22.71;28.36;97325.09;5017220;28;1094;-82
2022/07/10 07:39:36;;;;;;;;;;;;;;;22.56;28.70;97319.22;5017833;28;807;-82
2022/07/10 07:42:02;;;;;;;;;;;;;;;22.68;28.74;97336.56;5017502;28;968;-81
2022/07/10 07:44:27;;;;;;;;;;;;;;;22.72;28.73;97338.00;5034578;28;967;-82
2022/07/10 07:46:53;;;;;;;;;;;;;;;22.52;29.12;97326.28;5034441;28;1084;-81
2022/07/10 07:49:18;;;;;;;;;;;;;;;22.72;28.63;97332.31;5034288;28;954;-82
2022/07/10 07:51:44;;;;;;;;;;;;;;;22.62;28.81;97328.69;5035131;28;1984;-81
2022/07/10 07:54:10;;;;;;;;;;;;;;;22.69;28.70;97327.63;5033999;28;1024;-81
2022/07/10 07:56:36;;;;;;;;;;;;;;;22.68;28.97;97320.34;5034021;28;950;-83
2022/07/10 07:59:01;;;;;;;;;;;;;;;22.79;28.55;97336.91;5034069;28;897;-82
2022/07/10 08:01:27;;;;;;;;;;;;;;;22.72;28.72;97326.66;5040784;28;1162;-82
2022/07/10 08:03:53;;;;;;;;;;;;;;;22.70;28.84;97334.84;5042640;28;1245;-83
2022/07/10 08:06:19;;;;;;;;;;;;;;;22.60;29.37;97330.41;5044394;28;1236;-81
2022/07/10 08:08:44;;;;;;;;;;;;;;;22.66;29.19;97334.22;5043272;28;1293;-82
2022/07/10 08:11:10;;;;;;;;;;;;;;;22.73;28.83;97328.22;5042544;28;1989;-82
2022/07/10 08:13:35;;;;;;;;;;;;;;;22.60;29.11;97330.41;5044232;28;1353;-80
2022/07/10 08:16:01;;;;;;;;;;;;;;;22.63;29.39;97335.13;5022082;28;1450;-81
2022/07/10 08:18:26;;;;;;;;;;;;;;;22.67;29.32;97335.00;5022769;28;1315;-82
2022/07/10 08:20:52;;;;;;;;;;;;;;;22.55;29.06;97340.31;5017736;28;1225;-82
2022/07/10 08:23:17;;;;;;;;;;;;;;;22.75;28.97;97337.06;5014191;28;909;-82
2022/07/10 08:25:42;;;;;;;;;;;;;;;22.73;29.06;97348.09;4997613;28;1118;-81
2022/07/10 08:28:11;;;;;;;;;;;;;;;22.73;29.04;97345.25;5013737;28;936;-82
2022/07/10 08:30:37;;;;;;;;;;;;;;;22.76;29.08;97338.66;5013844;28;1918;-82
2022/07/10 08:33:03;;;;;;;;;;;;;;;22.80;28.73;97350.63;5014156;28;934;-82
2022/07/10 08:35:28;;;;;;;;;;;;;;;22.71;28.93;97342.09;5013896;28;933;-81
2022/07/10 08:37:54;;;;;;;;;;;;;;;22.81;29.13;97345.75;5013818;28;1011;-82
2022/07/10 08:40:21;;;;;;;;;;;;;;;22.79;29.28;97349.03;5014017;28;1015;-80
2022/07/10 08:42:46;;;;;;;;;;;;;;;22.74;28.91;97349.69;5014392;28;1018;-82
2022/07/10 08:45:12;;;;;;;;;;;;;;;22.70;29.20;97356.75;5013794;28;931;-81
2022/07/10 08:47:38;;;;;;;;;;;;;;;22.57;29.41;97349.13;5015735;28;1270;-82
2022/07/10 08:50:04;;;;;;;;;;;;;;;22.81;28.92;97346.53;5014801;28;1898;-82
2022/07/10 08:52:29;;;;;;;;;;;;;;;22.56;29.31;97353.22;4993930;28;954;-82
2022/07/10 08:54:55;;;;;;;;;;;;;;;22.67;29.40;97349.16;4993885;28;885;-82
2022/07/10 08:57:20;;;;;;;;;;;;;;;22.73;29.31;97362.25;4994450;28;879;-82
2022/07/10 08:59:46;;;;;;;;;;;;;;;22.75;28.99;97348.41;4994180;28;949;-82
2022/07/10 09:02:11;;;;;;;;;;;;;;;22.59;29.41;97326.00;4994075;28;1031;-81
2022/07/10 09:04:37;;;;;;;;;;;;;;;22.74;29.40;97358.19;4994048;28;932;-82
2022/07/10 09:07:04;;;;;;;;;;;;;;;22.84;29.11;97351.25;4994357;28;916;-82
2022/07/10 09:09:29;;;;;;;;;;;;;;;22.66;29.50;97345.56;4993823;28;909;-82
2022/07/10 09:11:55;;;;;;;;;;;;;;;22.91;29.29;97355.09;4994015;28;1910;-82
2022/07/10 09:14:23;;;;;;;;;;;;;;;22.79;29.20;97357.53;4993847;28;971;-82
2022/07/10 09:16:49;;;;;;;;;;;;;;;22.68;29.45;97348.69;4993802;28;984;-83
2022/07/10 09:19:15;;;;;;;;;;;;;;;22.87;29.05;97356.00;4993980;28;882;-81
2022/07/10 09:21:40;;;;;;;;;;;;;;;22.85;28.95;97341.50;4994201;28;972;-82
2022/07/10 09:24:07;;;;;;;;;;;;;;;22.85;29.09;97347.19;5023727;28;916;-82
2022/07/10 09:26:33;;;;;;;;;;;;;;;22.65;29.25;97343.97;5033153;28;829;-82
2022/07/10 09:29:11;;;;;;;;;;;;;;;22.77;29.42;97350.78;5036335;28;1028;-80
2022/07/10 09:31:49;;;;;;;;;;;;;;;22.86;29.13;97343.09;5020709;28;1914;-80
2022/07/10 09:34:15;;;;;;;;;;;;;;;22.83;28.98;97349.69;5036894;28;1031;-82
2022/07/10 09:36:40;;;;;;;;;;;;;;;22.85;29.18;97347.19;5036820;28;986;-82
2022/07/10 09:39:06;;;;;;;;;;;;;;;22.79;29.28;97337.69;5037129;28;914;-83
2022/07/10 09:41:32;;;;;;;;;;;;;;;22.76;29.03;97350.00;5020642;28;982;-81
2022/07/10 09:43:57;;;;;;;;;;;;;;;22.80;29.00;97344.97;5020116;28;843;-82
2022/07/10 09:46:27;;;;;;;;;;;;;;;22.73;29.17;97339.56;5020072;28;930;-81
2022/07/10 09:49:00;;;;;;;;;;;;;;;22.76;29.37;97332.97;5001315;28;1275;-82
2022/07/10 09:51:25;;;;;;;;;;;;;;;22.69;29.19;97327.63;5001136;28;1969;-81
2022/07/10 09:53:51;;;;;;;;;;;;;;;22.81;29.27;97329.53;5001729;28;791;-81
2022/07/10 09:56:16;;;;;;;;;;;;;;;22.77;29.21;97328.88;5001789;28;1251;-82
2022/07/10 09:58:42;;;;;;;;;;;;;;;22.83;29.25;97327.00;5018113;28;955;-81
2022/07/10 10:01:07;;;;;;;;;;;;;;;22.74;29.48;97321.31;5001527;28;916;-82
2022/07/10 10:03:37;;;;;;;;;;;;;;;22.75;29.32;97320.06;5017256;28;918;-83
2022/07/10 10:06:02;;;;;;;;;;;;;;;22.71;29.65;97325.09;5036215;28;1387;-82
2022/07/10 10:08:32;;;;;;;;;;;;;;;22.85;28.96;97313.16;5035940;28;1007;-82
2022/07/10 10:10:57;;;;;;;;;;;;;;;22.67;29.31;97313.09;5035901;28;1987;-83
2022/07/10 10:13:23;;;;;;;;;;;;;;;22.86;28.95;97314.72;5035934;28;979;-82
2022/07/10 10:15:50;;;;;;;;;;;;;;;22.78;29.40;97306.97;5035276;28;2156;-83
2022/07/10 10:18:18;;;;;;;;;;;;;;;22.74;29.44;97312.81;5035877;28;916;-82
2022/07/10 10:20:45;;;;;;;;;;;;;;;22.87;29.20;97304.94;5035543;28;974;-82
2022/07/10 10:23:12;;;;;;;;;;;;;;;22.77;29.34;97322.41;5036253;28;890;-82
2022/07/10 10:25:38;;;;;;;;;;;;;;;22.84;29.23;97311.53;5023915;28;1126;-83
2022/07/10 10:28:06;;;;;;;;;;;;;;;22.91;29.25;97321.06;4957272;28;1263;-82
2022/07/10 10:30:31;;;;;;;;;;;;;;;22.93;29.00;97324.22;4975940;28;1910;-82
2022/07/10 10:32:57;;;;;;;;;;;;;;;22.87;29.40;97333.31;4986226;28;1406;-82
2022/07/10 10:35:43;;;;;;;;;;;;;;;23.06;28.68;97316.34;4965057;28;1239;-81
2022/07/10 10:38:09;;;;;;;;;;;;;;;22.93;29.11;97324.22;4976494;28;1200;-82
2022/07/10 10:40:34;;;;;;;;;;;;;;;22.74;29.46;97324.16;4958265;28;1295;-82
2022/07/10 10:43:16;;;;;;;;;;;;;;;22.86;29.04;97326.06;4976075;28;1255;-82
2022/07/10 10:45:42;;;;;;;;;;;;;;;22.89;29.13;97318.69;4987209;28;1235;-82
2022/07/10 10:48:08;;;;;;;;;;;;;;;22.78;29.56;97319.09;4995764;28;1070;-82
2022/07/10 10:50:39;;;;;;;;;;;;;;;22.63;29.76;97323.78;5012166;28;1981;-82
2022/07/10 10:53:11;;;;;;;;;;;;;;;22.80;29.48;97327.94;4996252;28;987;-82
2022/07/10 10:55:37;;;;;;;;;;;;;;;22.75;29.22;97322.09;4979911;28;1403;-82
2022/07/10 10:58:12;;;;;;;;;;;;;;;22.80;29.25;97315.81;5017015;28;1217;-83
2022/07/10 11:00:37;;;;;;;;;;;;;;;22.84;29.53;97311.53;5035169;28;943;-82
2022/07/10 11:03:15;;;;;;;;;;;;;;;22.82;29.48;97307.63;5035218;28;1052;-80
2022/07/10 11:05:41;;;;;;;;;;;;;;;22.88;29.32;97305.75;5035136;28;1081;-82
2022/07/10 11:08:07;;;;;;;;;;;;;;;22.86;29.13;97320.38;5034829;28;876;-82
2022/07/10 11:10:40;;;;;;;;;;;;;;;22.91;29.06;97309.72;5035027;28;1963;-82
2022/07/10 11:13:06;;;;;;;;;;;;;;;22.80;29.10;97305.25;5037344;28;1118;-82
2022/07/10 11:15:34;;;;;;;;;;;;;;;23.06;29.04;97307.84;5071857;28;1234;-82
2022/07/10 11:18:05;;;;;;;;;;;;;;;22.89;29.04;97310.16;5054563;28;1235;-82
2022/07/10 11:20:37;;;;;;;;;;;;;;;22.73;29.36;97305.53;5034630;28;1059;-82
2022/07/10 11:23:02;;;;;;;;;;;;;;;22.84;29.19;97297.34;5034797;28;977;-81
2022/07/10 11:25:50;;;;;;;;;;;;;;;22.86;29.06;97309.03;5018876;28;1119;-82
2022/07/10 11:28:18;;;;;;;;;;;;;;;22.96;28.91;97306.25;5018252;28;1219;-82
2022/07/10 11:30:48;;;;;;;;;;;;;;;23.01;28.67;97314.13;5034432;28;1975;-82
2022/07/10 11:33:14;;;;;;;;;;;;;;;22.83;29.23;97307.13;5034466;28;1001;-81
2022/07/10 11:35:40;;;;;;;;;;;;;;;22.91;29.20;97292.69;5034376;28;948;-82
2022/07/10 11:38:05;;;;;;;;;;;;;;;22.92;29.19;97311.28;5034731;28;941;-82
2022/07/10 11:40:35;;;;;;;;;;;;;;;22.91;29.19;97315.38;5034742;28;884;-82
2022/07/10 11:43:04;;;;;;;;;;;;;;;22.71;29.45;97319.41;5034643;28;918;-82
2022/07/10 11:45:33;;;;;;;;;;;;;;;22.80;29.36;97322.28;5034450;28;947;-82
2022/07/10 11:47:59;;;;;;;;;;;;;;;22.91;28.78;97316.19;5033953;28;1213;-83
2022/07/10 11:50:24;;;;;;;;;;;;;;;22.95;28.87;97310.31;5033801;28;1971;-83
2022/07/10 11:52:50;;;;;;;;;;;;;;;22.84;28.98;97305.88;5068719;28;1101;-81
2022/07/10 11:55:26;;;;;;;;;;;;;;;22.80;29.09;97322.28;5068595;28;843;-82
2022/07/10 11:57:52;;;;;;;;;;;;;;;22.81;29.27;97318.19;5036994;28;913;-82
2022/07/10 12:00:23;;;;;;;;;;;;;;;22.84;29.18;97322.88;5053715;28;927;-82
2022/07/10 12:02:48;;;;;;;;;;;;;;;22.86;28.88;97325.28;5070274;28;908;-82
2022/07/10 12:05:32;;;;;;;;;;;;;;;22.86;29.00;97326.06;5070453;28;952;-82
2022/07/10 12:07:58;;;;;;;;;;;;;;;22.79;28.91;97319.88;5054126;28;976;-81
2022/07/10 12:10:27;;;;;;;;;;;;;;;22.83;28.89;97320.53;5070561;28;1918;-82
2022/07/10 12:12:52;;;;;;;;;;;;;;;22.76;29.17;97324.47;5053808;28;948;-82
2022/07/10 12:15:30;;;;;;;;;;;;;;;22.82;29.10;97319.75;5053852;28;839;-82
2022/07/10 12:17:55;;;;;;;;;;;;;;;22.88;29.14;97312.22;5053405;28;903;-81
2022/07/10 12:20:21;;;;;;;;;;;;;;;22.92;28.63;97319.78;5053509;28;983;-82
2022/07/10 12:22:46;;;;;;;;;;;;;;;22.88;28.92;97315.06;5054053;28;979;-81
2022/07/10 12:25:12;;;;;;;;;;;;;;;22.85;29.06;97318.81;5053929;28;895;-83
2022/07/10 12:27:40;;;;;;;;;;;;;;;22.93;29.06;97312.84;5037324;28;955;-81
2022/07/10 12:30:06;;;;;;;;;;;;;;;22.83;29.18;97309.97;5053458;28;1978;-82
2022/07/10 12:32:31;;;;;;;;;;;;;;;22.79;28.87;97314.22;5053554;28;856;-82
2022/07/10 12:34:58;;;;;;;;;;;;;;;22.95;28.57;97316.00;5013787;28;917;-82
2022/07/10 12:37:23;;;;;;;;;;;;;;;23.02;28.50;97310.03;4997569;28;863;-82
2022/07/10 12:39:53;;;;;;;;;;;;;;;22.98;28.69;97307.34;5013983;28;932;-82
2022/07/10 12:42:31;;;;;;;;;;;;;;;22.95;28.76;97304.66;5013822;28;877;-82
2022/07/10 12:45:11;;;;;;;;;;;;;;;22.95;28.88;97304.66;5013631;28;933;-81
2022/07/10 12:47:47;;;;;;;;;;;;;;;22.81;29.08;97306.03;5013704;28;1127;-82
2022/07/10 12:50:12;;;;;;;;;;;;;;;23.00;28.73;97306.88;5013578;28;2001;-82
2022/07/10 12:52:38;;;;;;;;;;;;;;;22.84;28.74;97300.19;5013739;28;929;-82
2022/07/10 12:55:15;;;;;;;;;;;;;;;22.94;28.72;97303.09;5013746;28;937;-82
2022/07/10 12:57:57;;;;;;;;;;;;;;;22.97;28.56;97305.00;5013959;28;995;-82
2022/07/10 13:00:30;;;;;;;;;;;;;;;22.87;29.07;97299.28;5013566;28;903;-82
2022/07/10 13:03:08;;;;;;;;;;;;;;;23.01;28.39;97297.13;5015111;28;1035;-82
2022/07/10 13:05:38;;;;;;;;;;;;;;;22.90;28.61;97296.75;5017761;28;979;-81
2022/07/10 13:08:07;;;;;;;;;;;;;;;22.90;28.73;97291.91;5017497;28;1141;-82